Aviation Digital Data Service (ADDS)

Output produced by TAFs form (1811 UTC 20 July 2018)
found at http://www.aviationweather.gov/adds/tafs/
 
METAR text: RJFS 201800Z 04004KT 350V070 9999 FEW035 BKN/// 27/23 Q1008
Conditions at: RJFS (SAGA AIRPORT , JP) observed 1800 UTC 20 July 2018
Temperature: 27.0°C (81°F)
Dewpoint: 23.0°C (73°F) [RH = 79%]
Pressure (altimeter): 29.76 inches Hg (1008.0 mb)
Winds: from the NE (40 degrees) at 5 MPH (4 knots; 2.1 m/s)
Visibility: 6 or more miles (10+ km)
Ceiling: at least 12,000 feet AGL
Clouds: few clouds at 3500 feet AGL
Weather: no significant weather observed at this time

Forecast for: RJFS (SAGA AIRPORT , JP)
Text: TAF RJFS 201707Z 2018/2200 04005KT 9999 FEW030
Forecast period: 1800 UTC 20 July 2018 to 0000 UTC 22 July 2018
Forecast type: FROM: standard forecast or significant change
Winds: from the NE (40 degrees) at 6 MPH (5 knots; 2.6 m/s)
Visibility: 6 or more miles (10+ km)
Clouds: few clouds at 3000 feet AGL
Weather: no significant weather forecast for this period